Marfaam — PCNH — position and weather

sailwx.info

Track history (hours):
 
Tides and Currents Weather Stations Pressure Air Temp Water Temp Dewpoint Dewpoint Depression Visibility Wind Speed Wind Dir Waves Ship Positions

Marfaam

Last reported at 2017-Oct-19 09:00 UTC. Time now 2017-Oct-19 09:18 UTC.
Position N 54°51' E 018°47'.

Length 118 m; draft 7.3 m.

Type: Cargo ship. MMSI: 246843000.

Date/timePositionNaut miles runAvg speedWind from/ knotsBaromVisibWave heightAir tempDewpointWater temp
2017-Oct-19 09:00N 54°51' E 018°47'4 8.9
2017-Oct-19 08:31N 54°52' E 018°40'5 8.9
2017-Oct-19 08:00N 54°53' E 018°32'4 8.9
2017-Oct-19 07:30N 54°55' E 018°25'4 8.9
2017-Oct-19 07:00N 54°56' E 018°18'5 8.7
2017-Oct-19 06:29N 54°56' E 018°10'96 8.9
2017-Oct-18 19:41N 54°52' E 015°24'2 9.2
2017-Oct-18 19:26N 54°52' E 015°20'4 9.3
2017-Oct-18 19:00N 54°53' E 015°13'5 9.5
2017-Oct-18 18:30N 54°53' E 015°05'5 9.5
2017-Oct-18 18:00N 54°54' E 014°56'5 9.5
2017-Oct-18 17:30N 54°55' E 014°48'5 9.6
2017-Oct-18 17:00N 54°55' E 014°40'5 9.5
2017-Oct-18 16:30N 54°56' E 014°32'5 9.5
2017-Oct-18 16:00N 54°57' E 014°24'5 9.3
2017-Oct-18 15:30N 54°57' E 014°16'5 9.6
2017-Oct-18 15:00N 54°58' E 014°08'15 9.7
2017-Oct-18 13:27N 55°03' E 013°43'5 9.4
2017-Oct-18 12:56N 55°05' E 013°35'13 9.7
2017-Oct-18 11:35N 55°10' E 013°14'2 9.7
2017-Oct-18 11:23N 55°10' E 013°10'4 9.6
2017-Oct-18 11:00N 55°12' E 013°04'5 9.7
2017-Oct-18 10:30N 55°13' E 012°57'510.3
2017-Oct-18 10:00N 55°15' E 012°48'510.4
2017-Oct-18 09:30N 55°17' E 012°40'5 9.2
2017-Oct-18 09:00N 55°22' E 012°39'5 9.8
2017-Oct-18 08:30N 55°27' E 012°40'510.0
2017-Oct-18 08:00N 55°32' E 012°42'4 8.1
2017-Oct-18 07:30N 55°36' E 012°42'4 7.9
2017-Oct-18 07:00N 55°40' E 012°41'4 8.2
2017-Oct-18 06:30N 55°44' E 012°41'4 8.7
2017-Oct-18 06:00N 55°48' E 012°42'4 8.5
2017-Oct-18 05:30N 55°52' E 012°39'4 8.4
2017-Oct-18 05:00N 55°56' E 012°38'4 8.6
2017-Oct-18 04:30N 56°00' E 012°38'4 7.3
2017-Oct-18 04:00N 56°04' E 012°37'4 8.1
2017-Oct-18 03:30N 56°07' E 012°31'5 9.5
2017-Oct-18 03:00N 56°09' E 012°24'5 9.5
2017-Oct-18 02:30N 56°12' E 012°17'53 8.0
2017-Oct-17 19:49N 57°02' E 011°41'3 8.0
2017-Oct-17 19:30N 57°04' E 011°39'4 8.0
2017-Oct-17 18:59N 57°08' E 011°37'4 8.3
2017-Oct-17 18:30N 57°12' E 011°34'4 8.6
2017-Oct-17 18:00N 57°16' E 011°31'4 8.9
2017-Oct-17 17:30N 57°20' E 011°28'4 8.9
2017-Oct-17 17:00N 57°24' E 011°26'5 9.1
2017-Oct-17 16:30N 57°28' E 011°22'5 9.5
2017-Oct-17 16:00N 57°31' E 011°15'5 9.7
2017-Oct-17 15:30N 57°35' E 011°09'510.1
2017-Oct-17 15:00N 57°38' E 011°02'510.1
2017-Oct-17 14:30N 57°42' E 010°55'510.8
2017-Oct-17 14:00N 57°46' E 010°48'611.5
2017-Oct-17 13:30N 57°46' E 010°37'612.2
2017-Oct-17 13:00N 57°46' E 010°26'611.8
2017-Oct-17 12:30N 57°46' E 010°14'8011.2
2017-Oct-17 05:20N 57°42' E 007°44'411.1
2017-Oct-17 05:01N 57°43' E 007°37'510.9
2017-Oct-17 04:30N 57°43' E 007°27'510.8
2017-Oct-17 04:01N 57°43' E 007°17'510.7
2017-Oct-17 03:30N 57°43' E 007°07'610.8
2017-Oct-17 02:57N 57°44' E 006°56'511.3
2017-Oct-17 02:31N 57°44' E 006°47'611.7
2017-Oct-17 02:00N 57°44' E 006°35'611.3
2017-Oct-17 01:29N 57°48' E 006°27'511.0
2017-Oct-17 01:00N 57°51' E 006°19'610.9
2017-Oct-17 00:28N 57°55' E 006°11'510.6
2017-Oct-17 00:00N 57°58' E 006°04'510.4
2017-Oct-16 23:30N 58°01' E 005°56'16 9.6
2017-Oct-16 21:52N 58°11' E 005°34'3 8.5
2017-Oct-16 21:29N 58°14' E 005°29'144 9.0
2017-Oct-16 05:28N 60°34' E 004°22'4 8.6
2017-Oct-16 05:00N 60°37' E 004°27'4 8.7
2017-Oct-16 04:30N 60°41' E 004°32'4 8.4
2017-Oct-16 04:00N 60°44' E 004°37'5 9.0
2017-Oct-16 03:30N 60°45' E 004°46'5 9.4
2017-Oct-16 03:00N 60°50' E 004°45'510.7
2017-Oct-16 02:30N 60°51' E 004°56'4 7.6
2017-Oct-16 01:59N 60°51' E 005°04'0 0.1
2017-Oct-16 01:29N 60°51' E 005°04'0 0.0
2017-Oct-16 00:59N 60°51' E 005°04'0 0.0
2017-Oct-16 00:29N 60°51' E 005°04'0 0.0
2017-Oct-15 23:59N 60°51' E 005°04'0 0.0
2017-Oct-15 23:29N 60°51' E 005°04'0 0.0
2017-Oct-15 22:59N 60°51' E 005°04'0 0.0
2017-Oct-15 22:29N 60°51' E 005°04'0 0.0
2017-Oct-15 21:59N 60°51' E 005°04'0 0.0
2017-Oct-15 21:26N 60°51' E 005°04'0 0.0
2017-Oct-15 20:59N 60°51' E 005°04'0 0.0
2017-Oct-15 20:29N 60°51' E 005°04'0 0.0
2017-Oct-15 19:59N 60°51' E 005°04'0 0.0
2017-Oct-15 19:29N 60°51' E 005°04'0 0.0
2017-Oct-15 18:59N 60°51' E 005°04'0 0.0
2017-Oct-15 18:29N 60°51' E 005°04'0 0.0
2017-Oct-15 17:59N 60°51' E 005°04'0 0.0
2017-Oct-15 17:29N 60°51' E 005°04'0 0.0
2017-Oct-15 16:59N 60°51' E 005°04'0 0.0
2017-Oct-15 16:29N 60°51' E 005°04'0 0.0
2017-Oct-15 15:59N 60°51' E 005°04'0 0.0
2017-Oct-15 15:29N 60°51' E 005°04'0 0.0
2017-Oct-15 14:59N 60°51' E 005°04'0 0.0
2017-Oct-15 13:59N 60°51' E 005°04'0 0.0
2017-Oct-15 13:29N 60°51' E 005°04'0 0.0
2017-Oct-15 12:59N 60°51' E 005°04'0 0.0
2017-Oct-15 12:29N 60°51' E 005°04'0 0.0
2017-Oct-15 11:59N 60°51' E 005°04'0 0.0
2017-Oct-15 11:29N 60°51' E 005°04'0 0.0
2017-Oct-15 10:59N 60°51' E 005°04'0 0.0
2017-Oct-15 10:29N 60°51' E 005°04'0 0.0
2017-Oct-15 09:59N 60°51' E 005°04'0 0.0
2017-Oct-15 09:29N 60°51' E 005°04'0 0.0
2017-Oct-15 08:59N 60°51' E 005°04'0 0.0
2017-Oct-15 08:30N 60°51' E 005°04'4 7.6
2017-Oct-15 08:00N 60°51' E 004°56'611.8
2017-Oct-15 07:30N 60°50' E 004°44'510.3
2017-Oct-15 07:00N 60°44' E 004°43'2 5.0
2017-Oct-15 06:30N 60°44' E 004°38'3 6.9
2017-Oct-15 06:00N 60°41' E 004°36'3 5.2
2017-Oct-15 05:30N 60°40' E 004°32'1 2.7
2017-Oct-15 05:00N 60°41' E 004°32'1 1.5
2017-Oct-15 04:30N 60°40' E 004°33'3 6.6
2017-Oct-15 04:00N 60°37' E 004°31'3 6.7
2017-Oct-15 03:30N 60°34' E 004°28'4 8.0
2017-Oct-15 03:00N 60°31' E 004°24'41512.7
2017-Oct-13 18:23N 53°36' E 004°49'512.8
2017-Oct-13 17:59N 53°31' E 004°45'2712.5
2017-Oct-13 15:49N 53°07' E 004°26'412.4
2017-Oct-13 15:30N 53°04' E 004°23'612.5
2017-Oct-13 15:01N 52°58' E 004°18'612.4
2017-Oct-13 14:30N 52°53' E 004°14'612.3
2017-Oct-13 14:01N 52°47' E 004°08'612.4
2017-Oct-13 13:31N 52°43' E 004°02'612.6
2017-Oct-13 13:01N 52°38' E 003°54'712.9
2017-Oct-13 12:30N 52°33' E 003°47'813.3
2017-Oct-13 11:55N 52°27' E 003°39'1013.5
2017-Oct-13 11:12N 52°19' E 003°31'313.8
2017-Oct-13 10:58N 52°16' E 003°29'713.8
2017-Oct-13 10:30N 52°10' E 003°26'714.0
2017-Oct-13 10:00N 52°03' E 003°24'714.2
2017-Oct-13 09:30N 51°56' E 003°22'714.2
2017-Oct-13 09:00N 51°49' E 003°18'510.2
2017-Oct-13 08:28N 51°44' E 003°17'1 2.0
2017-Oct-13 08:00N 51°44' E 003°16'611.7
2017-Oct-13 07:28N 51°39' E 003°21'613.4
2017-Oct-13 07:00N 51°33' E 003°25'713.1
2017-Oct-13 06:30N 51°28' E 003°31'510.1
2017-Oct-13 06:00N 51°25' E 003°38'510.9
2017-Oct-13 05:30N 51°22' E 003°45'510.2
2017-Oct-13 05:00N 51°21' E 003°53'510.0
2017-Oct-13 04:30N 51°25' E 003°58'4 8.7
2017-Oct-13 04:00N 51°24' E 004°04'4 8.5
2017-Oct-13 03:30N 51°24' E 004°11'5 9.7
2017-Oct-13 03:01N 51°21' E 004°17'0 0.0
2017-Oct-13 02:31N 51°21' E 004°17'0 0.0
2017-Oct-13 02:01N 51°21' E 004°17'0 0.1
2017-Oct-13 01:31N 51°21' E 004°17'3 5.2
2017-Oct-13 01:00N 51°18' E 004°19'3 6.2
2017-Oct-13 00:31N 51°16' E 004°21'2 3.9
2017-Oct-13 00:01N 51°16' E 004°25'0 0.1
2017-Oct-12 23:31N 51°16' E 004°25'0 0.0
2017-Oct-12 23:00N 51°16' E 004°25'0 0.0
2017-Oct-12 22:30N 51°16' E 004°25'0 0.0
2017-Oct-12 22:00N 51°16' E 004°25'0 0.0
2017-Oct-12 21:30N 51°16' E 004°25'0 0.0
2017-Oct-12 21:00N 51°16' E 004°25'0 0.0
2017-Oct-12 20:30N 51°16' E 004°25'0 0.0
2017-Oct-12 20:01N 51°16' E 004°25'0 0.0
2017-Oct-12 19:31N 51°16' E 004°25'0 0.0
2017-Oct-12 19:00N 51°16' E 004°25'0 0.0
2017-Oct-12 18:31N 51°16' E 004°25'0 0.0
2017-Oct-12 18:01N 51°16' E 004°25'0 0.0
2017-Oct-12 17:30N 51°16' E 004°25'0 0.0
2017-Oct-12 17:00N 51°16' E 004°25'0 0.0
2017-Oct-12 16:30N 51°16' E 004°25'0 0.0
2017-Oct-12 16:00N 51°16' E 004°25'0 0.0
2017-Oct-12 15:30N 51°16' E 004°25'0 0.0
2017-Oct-12 15:00N 51°16' E 004°25'0 0.0
2017-Oct-12 14:30N 51°16' E 004°25'0 0.0
2017-Oct-12 14:00N 51°16' E 004°25'0 0.0
2017-Oct-12 13:30N 51°16' E 004°25'0 0.0
2017-Oct-12 12:56N 51°16' E 004°25'0 0.0
2017-Oct-12 12:30N 51°16' E 004°25'0 0.0
2017-Oct-12 12:00N 51°16' E 004°25'0 0.0
2017-Oct-12 11:30N 51°16' E 004°25'0 0.0
2017-Oct-12 11:00N 51°16' E 004°25'0 0.0
2017-Oct-12 10:30N 51°16' E 004°25'0 0.0
2017-Oct-12 10:00N 51°16' E 004°25'0 0.0
2017-Oct-12 09:30N 51°16' E 004°25'0 0.0
2017-Oct-12 09:00N 51°16' E 004°25'0 0.0
2017-Oct-12 08:30N 51°16' E 004°25'0 0.0
2017-Oct-12 08:00N 51°16' E 004°25'0 0.0
2017-Oct-12 07:30N 51°16' E 004°25'0 0.0
2017-Oct-12 07:00N 51°16' E 004°25'0 0.0
2017-Oct-12 06:27N 51°16' E 004°25'0 0.0
2017-Oct-12 06:00N 51°16' E 004°25'0 0.0
2017-Oct-12 05:29N 51°16' E 004°25'0 0.0
2017-Oct-12 05:00N 51°16' E 004°25'0 0.0
2017-Oct-12 04:30N 51°16' E 004°25'0 0.0
2017-Oct-12 04:00N 51°16' E 004°25'0 0.0
2017-Oct-12 03:30N 51°16' E 004°25'0 0.0
2017-Oct-12 03:00N 51°16' E 004°25'0 0.0
2017-Oct-12 02:30N 51°16' E 004°25'0 0.0
2017-Oct-12 02:00N 51°16' E 004°25'0 0.0
2017-Oct-12 01:30N 51°16' E 004°25'0 0.0
2017-Oct-12 00:59N 51°16' E 004°25'0 0.0
2017-Oct-12 00:30N 51°16' E 004°25'0 0.0
2017-Oct-12 00:00N 51°16' E 004°25'0 0.0
2017-Oct-11 23:30N 51°16' E 004°25'0 0.0
2017-Oct-11 23:00N 51°16' E 004°25'0 0.0
2017-Oct-11 22:30N 51°16' E 004°25'0 0.0
2017-Oct-11 22:00N 51°16' E 004°25'0 0.0
2017-Oct-11 21:30N 51°16' E 004°25'0 0.0
2017-Oct-11 21:00N 51°16' E 004°25'0 0.0
2017-Oct-11 20:30N 51°16' E 004°25'0 0.0
2017-Oct-11 20:00N 51°16' E 004°25'0 0.0
2017-Oct-11 19:30N 51°16' E 004°25'0 0.0
2017-Oct-11 19:00N 51°16' E 004°25'0 0.0
2017-Oct-11 18:30N 51°16' E 004°25'0 0.0
2017-Oct-11 18:00N 51°16' E 004°25'0 0.0
2017-Oct-11 17:30N 51°16' E 004°25'0 0.0
2017-Oct-11 17:00N 51°16' E 004°25'47 2.8
2017-Oct-10 23:57N 51°39' E 003°19'5 9.9
2017-Oct-10 23:29N 51°43' E 003°14'611.6
2017-Oct-10 22:59N 51°49' E 003°17'611.6
2017-Oct-10 22:29N 51°54' E 003°18'611.3
2017-Oct-10 21:57N 52°00' E 003°20'511.0
2017-Oct-10 21:29N 52°05' E 003°21'610.7
2017-Oct-10 20:58N 52°11' E 003°23'810.4
2017-Oct-10 20:14N 52°18' E 003°25'410.2
2017-Oct-10 19:49N 52°22' E 003°26'14 9.7
2017-Oct-10 18:23N 52°36' E 003°30'4 9.3
2017-Oct-10 18:00N 52°39' E 003°34'5 9.2
2017-Oct-10 17:30N 52°43' E 003°38'5 9.3
2017-Oct-10 16:59N 52°47' E 003°43'5 9.6
2017-Oct-10 16:30N 52°50' E 003°47'  
Track history (hours):
 
Tides and Currents Weather Stations Pressure Air Temp Water Temp Dewpoint Dewpoint Depression Visibility Wind Speed Wind Dir Waves Ship Positions

Marfaam

Last reported at 2017-Oct-19 09:00 UTC. Time now 2017-Oct-19 09:18 UTC.
Position N 54°51' E 018°47'.

Length 118 m; draft 7.3 m.

Type: Cargo ship. MMSI: 246843000.

Date/timePositionNaut miles runAvg speedWind from/ knotsBaromVisibWave heightAir tempDewpointWater temp
2017-Oct-19 09:00N 54°51' E 018°47'4 8.9
2017-Oct-19 08:31N 54°52' E 018°40'5 8.9
2017-Oct-19 08:00N 54°53' E 018°32'4 8.9
2017-Oct-19 07:30N 54°55' E 018°25'4 8.9
2017-Oct-19 07:00N 54°56' E 018°18'5 8.7
2017-Oct-19 06:29N 54°56' E 018°10'96 8.9
2017-Oct-18 19:41N 54°52' E 015°24'2 9.2
2017-Oct-18 19:26N 54°52' E 015°20'4 9.3
2017-Oct-18 19:00N 54°53' E 015°13'5 9.5
2017-Oct-18 18:30N 54°53' E 015°05'5 9.5
2017-Oct-18 18:00N 54°54' E 014°56'5 9.5
2017-Oct-18 17:30N 54°55' E 014°48'5 9.6
2017-Oct-18 17:00N 54°55' E 014°40'5 9.5
2017-Oct-18 16:30N 54°56' E 014°32'5 9.5
2017-Oct-18 16:00N 54°57' E 014°24'5 9.3
2017-Oct-18 15:30N 54°57' E 014°16'5 9.6
2017-Oct-18 15:00N 54°58' E 014°08'15 9.7
2017-Oct-18 13:27N 55°03' E 013°43'5 9.4
2017-Oct-18 12:56N 55°05' E 013°35'13 9.7
2017-Oct-18 11:35N 55°10' E 013°14'2 9.7
2017-Oct-18 11:23N 55°10' E 013°10'4 9.6
2017-Oct-18 11:00N 55°12' E 013°04'5 9.7
2017-Oct-18 10:30N 55°13' E 012°57'510.3
2017-Oct-18 10:00N 55°15' E 012°48'510.4
2017-Oct-18 09:30N 55°17' E 012°40'5 9.2
2017-Oct-18 09:00N 55°22' E 012°39'5 9.8
2017-Oct-18 08:30N 55°27' E 012°40'510.0
2017-Oct-18 08:00N 55°32' E 012°42'4 8.1
2017-Oct-18 07:30N 55°36' E 012°42'4 7.9
2017-Oct-18 07:00N 55°40' E 012°41'4 8.2
2017-Oct-18 06:30N 55°44' E 012°41'4 8.7
2017-Oct-18 06:00N 55°48' E 012°42'4 8.5
2017-Oct-18 05:30N 55°52' E 012°39'4 8.4
2017-Oct-18 05:00N 55°56' E 012°38'4 8.6
2017-Oct-18 04:30N 56°00' E 012°38'4 7.3
2017-Oct-18 04:00N 56°04' E 012°37'4 8.1
2017-Oct-18 03:30N 56°07' E 012°31'5 9.5
2017-Oct-18 03:00N 56°09' E 012°24'5 9.5
2017-Oct-18 02:30N 56°12' E 012°17'53 8.0
2017-Oct-17 19:49N 57°02' E 011°41'3 8.0
2017-Oct-17 19:30N 57°04' E 011°39'4 8.0
2017-Oct-17 18:59N 57°08' E 011°37'4 8.3
2017-Oct-17 18:30N 57°12' E 011°34'4 8.6
2017-Oct-17 18:00N 57°16' E 011°31'4 8.9
2017-Oct-17 17:30N 57°20' E 011°28'4 8.9
2017-Oct-17 17:00N 57°24' E 011°26'5 9.1
2017-Oct-17 16:30N 57°28' E 011°22'5 9.5
2017-Oct-17 16:00N 57°31' E 011°15'5 9.7
2017-Oct-17 15:30N 57°35' E 011°09'510.1
2017-Oct-17 15:00N 57°38' E 011°02'510.1
2017-Oct-17 14:30N 57°42' E 010°55'510.8
2017-Oct-17 14:00N 57°46' E 010°48'611.5
2017-Oct-17 13:30N 57°46' E 010°37'612.2
2017-Oct-17 13:00N 57°46' E 010°26'611.8
2017-Oct-17 12:30N 57°46' E 010°14'8011.2
2017-Oct-17 05:20N 57°42' E 007°44'411.1
2017-Oct-17 05:01N 57°43' E 007°37'510.9
2017-Oct-17 04:30N 57°43' E 007°27'510.8
2017-Oct-17 04:01N 57°43' E 007°17'510.7
2017-Oct-17 03:30N 57°43' E 007°07'610.8
2017-Oct-17 02:57N 57°44' E 006°56'511.3
2017-Oct-17 02:31N 57°44' E 006°47'611.7
2017-Oct-17 02:00N 57°44' E 006°35'611.3
2017-Oct-17 01:29N 57°48' E 006°27'511.0
2017-Oct-17 01:00N 57°51' E 006°19'610.9
2017-Oct-17 00:28N 57°55' E 006°11'510.6
2017-Oct-17 00:00N 57°58' E 006°04'510.4
2017-Oct-16 23:30N 58°01' E 005°56'16 9.6
2017-Oct-16 21:52N 58°11' E 005°34'3 8.5
2017-Oct-16 21:29N 58°14' E 005°29'144 9.0
2017-Oct-16 05:28N 60°34' E 004°22'4 8.6
2017-Oct-16 05:00N 60°37' E 004°27'4 8.7
2017-Oct-16 04:30N 60°41' E 004°32'4 8.4
2017-Oct-16 04:00N 60°44' E 004°37'5 9.0
2017-Oct-16 03:30N 60°45' E 004°46'5 9.4
2017-Oct-16 03:00N 60°50' E 004°45'510.7
2017-Oct-16 02:30N 60°51' E 004°56'4 7.6
2017-Oct-16 01:59N 60°51' E 005°04'0 0.1
2017-Oct-16 01:29N 60°51' E 005°04'0 0.0
2017-Oct-16 00:59N 60°51' E 005°04'0 0.0
2017-Oct-16 00:29N 60°51' E 005°04'0 0.0
2017-Oct-15 23:59N 60°51' E 005°04'0 0.0
2017-Oct-15 23:29N 60°51' E 005°04'0 0.0
2017-Oct-15 22:59N 60°51' E 005°04'0 0.0
2017-Oct-15 22:29N 60°51' E 005°04'0 0.0
2017-Oct-15 21:59N 60°51' E 005°04'0 0.0
2017-Oct-15 21:26N 60°51' E 005°04'0 0.0
2017-Oct-15 20:59N 60°51' E 005°04'0 0.0
2017-Oct-15 20:29N 60°51' E 005°04'0 0.0
2017-Oct-15 19:59N 60°51' E 005°04'0 0.0
2017-Oct-15 19:29N 60°51' E 005°04'0 0.0
2017-Oct-15 18:59N 60°51' E 005°04'0 0.0
2017-Oct-15 18:29N 60°51' E 005°04'0 0.0
2017-Oct-15 17:59N 60°51' E 005°04'0 0.0
2017-Oct-15 17:29N 60°51' E 005°04'0 0.0
2017-Oct-15 16:59N 60°51' E 005°04'0 0.0
2017-Oct-15 16:29N 60°51' E 005°04'0 0.0
2017-Oct-15 15:59N 60°51' E 005°04'0 0.0
2017-Oct-15 15:29N 60°51' E 005°04'0 0.0
2017-Oct-15 14:59N 60°51' E 005°04'0 0.0
2017-Oct-15 13:59N 60°51' E 005°04'0 0.0
2017-Oct-15 13:29N 60°51' E 005°04'0 0.0
2017-Oct-15 12:59N 60°51' E 005°04'0 0.0
2017-Oct-15 12:29N 60°51' E 005°04'0 0.0
2017-Oct-15 11:59N 60°51' E 005°04'0 0.0
2017-Oct-15 11:29N 60°51' E 005°04'0 0.0
2017-Oct-15 10:59N 60°51' E 005°04'0 0.0
2017-Oct-15 10:29N 60°51' E 005°04'0 0.0
2017-Oct-15 09:59N 60°51' E 005°04'0 0.0
2017-Oct-15 09:29N 60°51' E 005°04'0 0.0
2017-Oct-15 08:59N 60°51' E 005°04'0 0.0
2017-Oct-15 08:30N 60°51' E 005°04'4 7.6
2017-Oct-15 08:00N 60°51' E 004°56'611.8
2017-Oct-15 07:30N 60°50' E 004°44'510.3
2017-Oct-15 07:00N 60°44' E 004°43'2 5.0
2017-Oct-15 06:30N 60°44' E 004°38'3 6.9
2017-Oct-15 06:00N 60°41' E 004°36'3 5.2
2017-Oct-15 05:30N 60°40' E 004°32'1 2.7
2017-Oct-15 05:00N 60°41' E 004°32'1 1.5
2017-Oct-15 04:30N 60°40' E 004°33'3 6.6
2017-Oct-15 04:00N 60°37' E 004°31'3 6.7
2017-Oct-15 03:30N 60°34' E 004°28'4 8.0
2017-Oct-15 03:00N 60°31' E 004°24'41512.7
2017-Oct-13 18:23N 53°36' E 004°49'512.8
2017-Oct-13 17:59N 53°31' E 004°45'2712.5
2017-Oct-13 15:49N 53°07' E 004°26'412.4
2017-Oct-13 15:30N 53°04' E 004°23'612.5
2017-Oct-13 15:01N 52°58' E 004°18'612.4
2017-Oct-13 14:30N 52°53' E 004°14'612.3
2017-Oct-13 14:01N 52°47' E 004°08'612.4
2017-Oct-13 13:31N 52°43' E 004°02'612.6
2017-Oct-13 13:01N 52°38' E 003°54'712.9
2017-Oct-13 12:30N 52°33' E 003°47'813.3
2017-Oct-13 11:55N 52°27' E 003°39'1013.5
2017-Oct-13 11:12N 52°19' E 003°31'313.8
2017-Oct-13 10:58N 52°16' E 003°29'713.8
2017-Oct-13 10:30N 52°10' E 003°26'714.0
2017-Oct-13 10:00N 52°03' E 003°24'714.2
2017-Oct-13 09:30N 51°56' E 003°22'714.2
2017-Oct-13 09:00N 51°49' E 003°18'510.2
2017-Oct-13 08:28N 51°44' E 003°17'1 2.0
2017-Oct-13 08:00N 51°44' E 003°16'611.7
2017-Oct-13 07:28N 51°39' E 003°21'613.4
2017-Oct-13 07:00N 51°33' E 003°25'713.1
2017-Oct-13 06:30N 51°28' E 003°31'510.1
2017-Oct-13 06:00N 51°25' E 003°38'510.9
2017-Oct-13 05:30N 51°22' E 003°45'510.2
2017-Oct-13 05:00N 51°21' E 003°53'510.0
2017-Oct-13 04:30N 51°25' E 003°58'4 8.7
2017-Oct-13 04:00N 51°24' E 004°04'4 8.5
2017-Oct-13 03:30N 51°24' E 004°11'5 9.7
2017-Oct-13 03:01N 51°21' E 004°17'0 0.0
2017-Oct-13 02:31N 51°21' E 004°17'0 0.0
2017-Oct-13 02:01N 51°21' E 004°17'0 0.1
2017-Oct-13 01:31N 51°21' E 004°17'3 5.2
2017-Oct-13 01:00N 51°18' E 004°19'3 6.2
2017-Oct-13 00:31N 51°16' E 004°21'2 3.9
2017-Oct-13 00:01N 51°16' E 004°25'0 0.1
2017-Oct-12 23:31N 51°16' E 004°25'0 0.0
2017-Oct-12 23:00N 51°16' E 004°25'0 0.0
2017-Oct-12 22:30N 51°16' E 004°25'0 0.0
2017-Oct-12 22:00N 51°16' E 004°25'0 0.0
2017-Oct-12 21:30N 51°16' E 004°25'0 0.0
2017-Oct-12 21:00N 51°16' E 004°25'0 0.0
2017-Oct-12 20:30N 51°16' E 004°25'0 0.0
2017-Oct-12 20:01N 51°16' E 004°25'0 0.0
2017-Oct-12 19:31N 51°16' E 004°25'0 0.0
2017-Oct-12 19:00N 51°16' E 004°25'0 0.0
2017-Oct-12 18:31N 51°16' E 004°25'0 0.0
2017-Oct-12 18:01N 51°16' E 004°25'0 0.0
2017-Oct-12 17:30N 51°16' E 004°25'0 0.0
2017-Oct-12 17:00N 51°16' E 004°25'0 0.0
2017-Oct-12 16:30N 51°16' E 004°25'0 0.0
2017-Oct-12 16:00N 51°16' E 004°25'0 0.0
2017-Oct-12 15:30N 51°16' E 004°25'0 0.0
2017-Oct-12 15:00N 51°16' E 004°25'0 0.0
2017-Oct-12 14:30N 51°16' E 004°25'0 0.0
2017-Oct-12 14:00N 51°16' E 004°25'0 0.0
2017-Oct-12 13:30N 51°16' E 004°25'0 0.0
2017-Oct-12 12:56N 51°16' E 004°25'0 0.0
2017-Oct-12 12:30N 51°16' E 004°25'0 0.0
2017-Oct-12 12:00N 51°16' E 004°25'0 0.0
2017-Oct-12 11:30N 51°16' E 004°25'0 0.0
2017-Oct-12 11:00N 51°16' E 004°25'0 0.0
2017-Oct-12 10:30N 51°16' E 004°25'0 0.0
2017-Oct-12 10:00N 51°16' E 004°25'0 0.0
2017-Oct-12 09:30N 51°16' E 004°25'0 0.0
2017-Oct-12 09:00N 51°16' E 004°25'0 0.0
2017-Oct-12 08:30N 51°16' E 004°25'0 0.0
2017-Oct-12 08:00N 51°16' E 004°25'0 0.0
2017-Oct-12 07:30N 51°16' E 004°25'0 0.0
2017-Oct-12 07:00N 51°16' E 004°25'0 0.0
2017-Oct-12 06:27N 51°16' E 004°25'0 0.0
2017-Oct-12 06:00N 51°16' E 004°25'0 0.0
2017-Oct-12 05:29N 51°16' E 004°25'0 0.0
2017-Oct-12 05:00N 51°16' E 004°25'0 0.0
2017-Oct-12 04:30N 51°16' E 004°25'0 0.0
2017-Oct-12 04:00N 51°16' E 004°25'0 0.0
2017-Oct-12 03:30N 51°16' E 004°25'0 0.0
2017-Oct-12 03:00N 51°16' E 004°25'0 0.0
2017-Oct-12 02:30N 51°16' E 004°25'0 0.0
2017-Oct-12 02:00N 51°16' E 004°25'0 0.0
2017-Oct-12 01:30N 51°16' E 004°25'0 0.0
2017-Oct-12 00:59N 51°16' E 004°25'0 0.0
2017-Oct-12 00:30N 51°16' E 004°25'0 0.0
2017-Oct-12 00:00N 51°16' E 004°25'0 0.0
2017-Oct-11 23:30N 51°16' E 004°25'0 0.0
2017-Oct-11 23:00N 51°16' E 004°25'0 0.0
2017-Oct-11 22:30N 51°16' E 004°25'0 0.0
2017-Oct-11 22:00N 51°16' E 004°25'0 0.0
2017-Oct-11 21:30N 51°16' E 004°25'0 0.0
2017-Oct-11 21:00N 51°16' E 004°25'0 0.0
2017-Oct-11 20:30N 51°16' E 004°25'0 0.0
2017-Oct-11 20:00N 51°16' E 004°25'0 0.0
2017-Oct-11 19:30N 51°16' E 004°25'0 0.0
2017-Oct-11 19:00N 51°16' E 004°25'0 0.0
2017-Oct-11 18:30N 51°16' E 004°25'0 0.0
2017-Oct-11 18:00N 51°16' E 004°25'0 0.0
2017-Oct-11 17:30N 51°16' E 004°25'0 0.0
2017-Oct-11 17:00N 51°16' E 004°25'47 2.8
2017-Oct-10 23:57N 51°39' E 003°19'5 9.9
2017-Oct-10 23:29N 51°43' E 003°14'611.6
2017-Oct-10 22:59N 51°49' E 003°17'611.6
2017-Oct-10 22:29N 51°54' E 003°18'611.3
2017-Oct-10 21:57N 52°00' E 003°20'511.0
2017-Oct-10 21:29N 52°05' E 003°21'610.7
2017-Oct-10 20:58N 52°11' E 003°23'810.4
2017-Oct-10 20:14N 52°18' E 003°25'410.2
2017-Oct-10 19:49N 52°22' E 003°26'14 9.7
2017-Oct-10 18:23N 52°36' E 003°30'4 9.3
2017-Oct-10 18:00N 52°39' E 003°34'5 9.2
2017-Oct-10 17:30N 52°43' E 003°38'5 9.3
2017-Oct-10 16:59N 52°47' E 003°43'5 9.6
2017-Oct-10 16:30N 52°50' E 003°47'  

Dump ship's entire track history